CCA119 ZBAA-ZKPY
Flight info
| Callsign | CCA119 |
|---|---|
| Flight time | 1h 26m |
| Altitude | 35100 |
| Route | DOTRA B334 KAKAT W31 CHG A575 BIDIB A345 GASAN |
| Aircraft | B772/H-SDE2E3FGILRWXY/LB2 |
Departure
| Time | 2026-04-16 07:16 |
|---|---|
| Airport | Beijing Capital International Airport (ZBAA) |
Arrival
| Time | 2026-04-16 08:42 |
|---|---|
| Airport | Pyongyang Sunan International Airport (ZKPY) |
| Time | Latitude | Longitude | Altitude | Speed | Heading |
|---|---|---|---|---|---|
| 2026-04-16 06:54 | 40.07487 | 116.58786 | 128 ft | 0 kts | 354° |
| 2026-04-16 07:05 | 40.07487 | 116.58787 | 128 ft | 1 kts | 354° |
| 2026-04-16 07:05 | 40.07473 | 116.58789 | 128 ft | 2 kts | 349° |
| 2026-04-16 07:05 | 40.07458 | 116.58793 | 128 ft | 2 kts | 350° |
| 2026-04-16 07:05 | 40.07443 | 116.58794 | 128 ft | 2 kts | 13° |
| 2026-04-16 07:06 | 40.07429 | 116.58786 | 128 ft | 2 kts | 38° |
| 2026-04-16 07:06 | 40.07418 | 116.58772 | 128 ft | 2 kts | 58° |
| 2026-04-16 07:06 | 40.07412 | 116.58755 | 128 ft | 1 kts | 80° |
| 2026-04-16 07:06 | 40.07411 | 116.58746 | 128 ft | 0 kts | 84° |
| 2026-04-16 07:09 | 40.07412 | 116.58758 | 128 ft | 5 kts | 84° |
| 2026-04-16 07:09 | 40.07422 | 116.58851 | 128 ft | 15 kts | 83° |
| 2026-04-16 07:10 | 40.07438 | 116.59031 | 128 ft | 24 kts | 83° |
| 2026-04-16 07:10 | 40.07458 | 116.59244 | 128 ft | 23 kts | 77° |
| 2026-04-16 07:10 | 40.07476 | 116.59396 | 128 ft | 12 kts | 110° |
| 2026-04-16 07:10 | 40.07397 | 116.59454 | 128 ft | 14 kts | 149° |
| 2026-04-16 07:11 | 40.07299 | 116.59506 | 128 ft | 16 kts | 173° |
| 2026-04-16 07:11 | 40.07179 | 116.59525 | 128 ft | 18 kts | 174° |
| 2026-04-16 07:11 | 40.07049 | 116.59544 | 128 ft | 19 kts | 174° |
| 2026-04-16 07:11 | 40.06908 | 116.59565 | 128 ft | 20 kts | 172° |
| 2026-04-16 07:12 | 40.06760 | 116.59595 | 128 ft | 22 kts | 172° |
| 2026-04-16 07:12 | 40.06603 | 116.59615 | 128 ft | 23 kts | 174° |
| 2026-04-16 07:12 | 40.06438 | 116.59641 | 128 ft | 24 kts | 173° |
| 2026-04-16 07:12 | 40.06262 | 116.59667 | 128 ft | 25 kts | 172° |
| 2026-04-16 07:13 | 40.06083 | 116.59696 | 128 ft | 26 kts | 174° |
| 2026-04-16 07:13 | 40.05911 | 116.59723 | 128 ft | 16 kts | 173° |
| 2026-04-16 07:13 | 40.05868 | 116.59780 | 128 ft | 5 kts | 91° |
| 2026-04-16 07:13 | 40.05868 | 116.59788 | 128 ft | 0 kts | 85° |
| 2026-04-16 07:14 | 40.05869 | 116.59804 | 128 ft | 5 kts | 85° |
| 2026-04-16 07:14 | 40.05876 | 116.59893 | 128 ft | 13 kts | 84° |
| 2026-04-16 07:14 | 40.05913 | 116.59958 | 128 ft | 5 kts | 355° |
| 2026-04-16 07:15 | 40.05915 | 116.59958 | 128 ft | 0 kts | 354° |
| 2026-04-16 07:15 | 40.05932 | 116.59956 | 128 ft | 10 kts | 354° |
| 2026-04-16 07:15 | 40.06231 | 116.59909 | 128 ft | 88 kts | 354° |
| 2026-04-16 07:15 | 40.07141 | 116.59766 | 141 ft | 168 kts | 352° |
| 2026-04-16 07:16 | 40.08344 | 116.59568 | 927 ft | 176 kts | 352° |
| 2026-04-16 07:16 | 40.09513 | 116.59405 | 1790 ft | 173 kts | 351° |
| 2026-04-16 07:16 | 40.10780 | 116.59197 | 2187 ft | 190 kts | 351° |
| 2026-04-16 07:16 | 40.12163 | 116.58974 | 2601 ft | 208 kts | 351° |
| 2026-04-16 07:17 | 40.13667 | 116.58736 | 3060 ft | 226 kts | 351° |
| 2026-04-16 07:17 | 40.15261 | 116.58485 | 3556 ft | 242 kts | 351° |
| 2026-04-16 07:17 | 40.16992 | 116.58213 | 4085 ft | 258 kts | 351° |
| 2026-04-16 07:17 | 40.18847 | 116.57920 | 4623 ft | 273 kts | 351° |
| 2026-04-16 07:18 | 40.20738 | 116.57622 | 5454 ft | 274 kts | 351° |
| 2026-04-16 07:18 | 40.22627 | 116.57325 | 6232 ft | 278 kts | 351° |
| 2026-04-16 07:18 | 40.24572 | 116.57018 | 7021 ft | 280 kts | 351° |
| 2026-04-16 07:18 | 40.26502 | 116.56705 | 7802 ft | 282 kts | 350° |
| 2026-04-16 07:19 | 40.28437 | 116.56376 | 8521 ft | 285 kts | 350° |
| 2026-04-16 07:19 | 40.30419 | 116.56039 | 8793 ft | 286 kts | 350° |
| 2026-04-16 07:19 | 40.32415 | 116.55702 | 8815 ft | 286 kts | 350° |
| 2026-04-16 07:19 | 40.34373 | 116.55372 | 8822 ft | 285 kts | 351° |
| 2026-04-16 07:20 | 40.36362 | 116.55036 | 8823 ft | 285 kts | 350° |
| 2026-04-16 07:20 | 40.38332 | 116.54703 | 8826 ft | 285 kts | 350° |
| 2026-04-16 07:20 | 40.40305 | 116.54370 | 8827 ft | 285 kts | 350° |
| 2026-04-16 07:20 | 40.42285 | 116.54102 | 8825 ft | 286 kts | 356° |
| 2026-04-16 07:21 | 40.44339 | 116.54184 | 9215 ft | 298 kts | 1° |
| 2026-04-16 07:21 | 40.46387 | 116.54345 | 10205 ft | 292 kts | 1° |
| 2026-04-16 07:21 | 40.48461 | 116.54503 | 10667 ft | 306 kts | 1° |
| 2026-04-16 07:21 | 40.50637 | 116.54723 | 11027 ft | 324 kts | 6° |
| 2026-04-16 07:22 | 40.52890 | 116.55484 | 11370 ft | 344 kts | 19° |
| 2026-04-16 07:22 | 40.55103 | 116.56978 | 11694 ft | 364 kts | 33° |
| 2026-04-16 07:22 | 40.57115 | 116.59086 | 12046 ft | 381 kts | 40° |
| 2026-04-16 07:22 | 40.59130 | 116.61385 | 12598 ft | 390 kts | 40° |
| 2026-04-16 07:23 | 40.61216 | 116.63763 | 13358 ft | 394 kts | 40° |
| 2026-04-16 07:23 | 40.63285 | 116.66113 | 14136 ft | 398 kts | 40° |
| 2026-04-16 07:23 | 40.65396 | 116.68505 | 14837 ft | 405 kts | 40° |
| 2026-04-16 07:23 | 40.67566 | 116.70960 | 15560 ft | 411 kts | 40° |
| 2026-04-16 07:24 | 40.69735 | 116.73415 | 16394 ft | 414 kts | 40° |
| 2026-04-16 07:24 | 40.71917 | 116.75865 | 17140 ft | 418 kts | 37° |
| 2026-04-16 07:24 | 40.74345 | 116.78007 | 17823 ft | 422 kts | 27° |
| 2026-04-16 07:24 | 40.77052 | 116.79559 | 18487 ft | 425 kts | 16° |
| 2026-04-16 07:25 | 40.79919 | 116.80432 | 19223 ft | 426 kts | 5° |
| 2026-04-16 07:25 | 40.82876 | 116.80702 | 19900 ft | 428 kts | 359° |
| 2026-04-16 07:25 | 40.85856 | 116.80823 | 20632 ft | 431 kts | 359° |
| 2026-04-16 07:25 | 40.88860 | 116.80949 | 21280 ft | 437 kts | 359° |
| 2026-04-16 07:26 | 40.91920 | 116.81085 | 21872 ft | 443 kts | 359° |
| 2026-04-16 07:26 | 40.95021 | 116.81230 | 22525 ft | 447 kts | 359° |
| 2026-04-16 07:26 | 40.98127 | 116.81381 | 23208 ft | 450 kts | 359° |
| 2026-04-16 07:26 | 41.01289 | 116.81538 | 23777 ft | 456 kts | 359° |
| 2026-04-16 07:27 | 41.04462 | 116.81699 | 24360 ft | 461 kts | 359° |
| 2026-04-16 07:27 | 41.07697 | 116.81863 | 25014 ft | 464 kts | 359° |
| 2026-04-16 07:27 | 41.10758 | 116.82021 | 25592 ft | 468 kts | 359° |
| 2026-04-16 07:27 | 41.14070 | 116.82192 | 26031 ft | 475 kts | 359° |
| 2026-04-16 07:28 | 41.17414 | 116.82365 | 26449 ft | 483 kts | 359° |
| 2026-04-16 07:28 | 41.20777 | 116.82540 | 27031 ft | 486 kts | 359° |
| 2026-04-16 07:28 | 41.24149 | 116.82716 | 27586 ft | 490 kts | 359° |
| 2026-04-16 07:28 | 41.27594 | 116.82897 | 28024 ft | 496 kts | 359° |
| 2026-04-16 07:29 | 41.31061 | 116.83079 | 28489 ft | 501 kts | 359° |
| 2026-04-16 07:29 | 41.34553 | 116.83263 | 29020 ft | 504 kts | 359° |
| 2026-04-16 07:29 | 41.38036 | 116.83446 | 29606 ft | 506 kts | 359° |
| 2026-04-16 07:29 | 41.41599 | 116.83635 | 30249 ft | 506 kts | 359° |
| 2026-04-16 07:30 | 41.45158 | 116.83823 | 30971 ft | 505 kts | 359° |
| 2026-04-16 07:30 | 41.48643 | 116.84009 | 31625 ft | 504 kts | 358° |
| 2026-04-16 07:30 | 41.52187 | 116.84197 | 32227 ft | 505 kts | 358° |
| 2026-04-16 07:30 | 41.55719 | 116.84384 | 32868 ft | 504 kts | 358° |
| 2026-04-16 07:31 | 41.59201 | 116.84790 | 33462 ft | 508 kts | 6° |
| 2026-04-16 07:31 | 41.62703 | 116.85892 | 34039 ft | 512 kts | 15° |
| 2026-04-16 07:31 | 41.65989 | 116.87650 | 34594 ft | 515 kts | 25° |
| 2026-04-16 07:31 | 41.69122 | 116.90092 | 35003 ft | 518 kts | 33° |
| 2026-04-16 07:32 | 41.71932 | 116.93051 | 35060 ft | 522 kts | 43° |
| 2026-04-16 07:32 | 41.76544 | 117.00607 | 35072 ft | 517 kts | 62° |
| 2026-04-16 07:33 | 41.79509 | 117.09325 | 35079 ft | 515 kts | 71° |
| 2026-04-16 07:33 | 41.82272 | 117.18149 | 35080 ft | 514 kts | 70° |
| 2026-04-16 07:34 | 41.85139 | 117.26927 | 35081 ft | 516 kts | 69° |
| 2026-04-16 07:34 | 41.88093 | 117.35765 | 35086 ft | 515 kts | 68° |
| 2026-04-16 07:35 | 41.91080 | 117.44615 | 35086 ft | 531 kts | 68° |
| 2026-04-16 07:35 | 41.94208 | 117.53844 | 35089 ft | 549 kts | 67° |
| 2026-04-16 07:36 | 41.97403 | 117.63259 | 35081 ft | 556 kts | 67° |
| 2026-04-16 07:36 | 42.00621 | 117.72750 | 35072 ft | 556 kts | 68° |
| 2026-04-16 07:37 | 42.03829 | 117.82240 | 35069 ft | 557 kts | 68° |
| 2026-04-16 07:37 | 42.07013 | 117.91684 | 35076 ft | 558 kts | 68° |
| 2026-04-16 07:38 | 42.10214 | 118.01207 | 35064 ft | 557 kts | 68° |
| 2026-04-16 07:38 | 42.13422 | 118.10781 | 35060 ft | 559 kts | 68° |
| 2026-04-16 07:39 | 42.16559 | 118.20368 | 35058 ft | 560 kts | 72° |
| 2026-04-16 07:39 | 42.18275 | 118.30550 | 35078 ft | 550 kts | 89° |
| 2026-04-16 07:40 | 42.18530 | 118.40859 | 35067 ft | 548 kts | 93° |
| 2026-04-16 07:40 | 42.18666 | 118.51164 | 35070 ft | 548 kts | 93° |
| 2026-04-16 07:41 | 42.18790 | 118.61395 | 35056 ft | 548 kts | 93° |
| 2026-04-16 07:41 | 42.18893 | 118.70767 | 35048 ft | 548 kts | 94° |
| 2026-04-16 07:42 | 42.18060 | 118.80850 | 35045 ft | 536 kts | 111° |
| 2026-04-16 07:42 | 42.15316 | 118.90037 | 35047 ft | 522 kts | 124° |
| 2026-04-16 07:43 | 42.11941 | 118.98645 | 35046 ft | 521 kts | 125° |
| 2026-04-16 07:43 | 42.08504 | 119.07281 | 35034 ft | 523 kts | 125° |
| 2026-04-16 07:44 | 42.05066 | 119.15861 | 35048 ft | 522 kts | 125° |
| 2026-04-16 07:44 | 42.01598 | 119.24471 | 35051 ft | 521 kts | 125° |
| 2026-04-16 07:45 | 41.98155 | 119.32980 | 35050 ft | 525 kts | 125° |
| 2026-04-16 07:45 | 41.94669 | 119.41569 | 35054 ft | 523 kts | 125° |
| 2026-04-16 07:46 | 41.91224 | 119.50194 | 35047 ft | 523 kts | 124° |
| 2026-04-16 07:46 | 41.87802 | 119.58821 | 35057 ft | 523 kts | 124° |
| 2026-04-16 07:47 | 41.84354 | 119.67475 | 35048 ft | 525 kts | 125° |
| 2026-04-16 07:47 | 41.80907 | 119.76102 | 35054 ft | 524 kts | 124° |
| 2026-04-16 07:48 | 41.77456 | 119.84708 | 35050 ft | 523 kts | 125° |
| 2026-04-16 07:48 | 41.74005 | 119.93286 | 35047 ft | 523 kts | 124° |
| 2026-04-16 07:49 | 41.70533 | 120.01890 | 35051 ft | 524 kts | 125° |
| 2026-04-16 07:49 | 41.67066 | 120.10455 | 35029 ft | 526 kts | 125° |
| 2026-04-16 07:50 | 41.63575 | 120.19057 | 35037 ft | 526 kts | 124° |
| 2026-04-16 07:50 | 41.60045 | 120.27729 | 35031 ft | 526 kts | 124° |
| 2026-04-16 07:51 | 41.56616 | 120.36234 | 35035 ft | 530 kts | 121° |
| 2026-04-16 07:51 | 41.54373 | 120.45778 | 35029 ft | 542 kts | 103° |
| 2026-04-16 07:51 | 41.54018 | 120.50908 | 35031 ft | 553 kts | 94° |
| 2026-04-16 07:52 | 41.54163 | 120.55986 | 35046 ft | 553 kts | 89° |
| 2026-04-16 07:52 | 41.54766 | 120.66127 | 35029 ft | 556 kts | 89° |
| 2026-04-16 07:53 | 41.55350 | 120.76377 | 35028 ft | 555 kts | 89° |
| 2026-04-16 07:53 | 41.55907 | 120.86733 | 35023 ft | 555 kts | 89° |
| 2026-04-16 07:54 | 41.56438 | 120.96994 | 35037 ft | 556 kts | 89° |
| 2026-04-16 07:54 | 41.56955 | 121.07307 | 35029 ft | 555 kts | 89° |
| 2026-04-16 07:55 | 41.57457 | 121.17574 | 35040 ft | 556 kts | 89° |
| 2026-04-16 07:55 | 41.58181 | 121.27883 | 35036 ft | 557 kts | 86° |
| 2026-04-16 07:56 | 41.59017 | 121.38225 | 35036 ft | 558 kts | 86° |
| 2026-04-16 07:56 | 41.59827 | 121.48511 | 35048 ft | 558 kts | 86° |
| 2026-04-16 07:57 | 41.60628 | 121.58898 | 35038 ft | 557 kts | 86° |
| 2026-04-16 07:57 | 41.61345 | 121.68353 | 35050 ft | 560 kts | 87° |
| 2026-04-16 07:58 | 41.62087 | 121.78280 | 35044 ft | 559 kts | 87° |
| 2026-04-16 07:58 | 41.62849 | 121.88620 | 35043 ft | 561 kts | 87° |
| 2026-04-16 07:59 | 41.63600 | 121.98959 | 35048 ft | 559 kts | 86° |
| 2026-04-16 07:59 | 41.64264 | 122.09367 | 35047 ft | 559 kts | 92° |
| 2026-04-16 08:00 | 41.63565 | 122.19627 | 35051 ft | 555 kts | 102° |
| 2026-04-16 08:00 | 41.62419 | 122.29839 | 35045 ft | 553 kts | 102° |
| 2026-04-16 08:01 | 41.61263 | 122.39977 | 35045 ft | 556 kts | 102° |
| 2026-04-16 08:01 | 41.60090 | 122.50177 | 35050 ft | 554 kts | 102° |
| 2026-04-16 08:02 | 41.58910 | 122.60335 | 35037 ft | 554 kts | 102° |
| 2026-04-16 08:02 | 41.57149 | 122.75356 | 35026 ft | 552 kts | 103° |
| 2026-04-16 08:03 | 41.55941 | 122.85544 | 35026 ft | 556 kts | 103° |
| 2026-04-16 08:03 | 41.54729 | 122.95700 | 35019 ft | 551 kts | 103° |
| 2026-04-16 08:04 | 41.53504 | 123.05883 | 35025 ft | 554 kts | 103° |
| 2026-04-16 08:04 | 41.52277 | 123.15999 | 35039 ft | 555 kts | 103° |
| 2026-04-16 08:05 | 41.51033 | 123.26181 | 35047 ft | 554 kts | 103° |
| 2026-04-16 08:05 | 41.49848 | 123.36305 | 35054 ft | 555 kts | 102° |
| 2026-04-16 08:06 | 41.48724 | 123.46446 | 35062 ft | 555 kts | 101° |
| 2026-04-16 08:06 | 41.47584 | 123.56599 | 35063 ft | 555 kts | 101° |
| 2026-04-16 08:07 | 41.46536 | 123.65861 | 35070 ft | 556 kts | 102° |
| 2026-04-16 08:07 | 41.45736 | 123.72865 | 35069 ft | 555 kts | 102° |
| 2026-04-16 08:08 | 41.44568 | 123.83018 | 35083 ft | 556 kts | 102° |
| 2026-04-16 08:08 | 41.42991 | 123.93025 | 35086 ft | 548 kts | 114° |
| 2026-04-16 08:09 | 41.39608 | 124.02033 | 35103 ft | 541 kts | 130° |
| 2026-04-16 08:09 | 41.34601 | 124.09281 | 35121 ft | 523 kts | 148° |
| 2026-04-16 08:10 | 41.28521 | 124.14199 | 35115 ft | 501 kts | 164° |
| 2026-04-16 08:10 | 41.21902 | 124.16690 | 35129 ft | 486 kts | 179° |
| 2026-04-16 08:11 | 41.15211 | 124.17800 | 35133 ft | 483 kts | 181° |
| 2026-04-16 08:11 | 41.08560 | 124.18684 | 35131 ft | 481 kts | 182° |
| 2026-04-16 08:12 | 41.01781 | 124.19476 | 35128 ft | 483 kts | 181° |
| 2026-04-16 08:12 | 40.95087 | 124.20348 | 35133 ft | 484 kts | 182° |
| 2026-04-16 08:13 | 40.88592 | 124.21150 | 35144 ft | 481 kts | 182° |
| 2026-04-16 08:13 | 40.81899 | 124.21943 | 35140 ft | 485 kts | 182° |
| 2026-04-16 08:14 | 40.75167 | 124.22728 | 35139 ft | 485 kts | 182° |
| 2026-04-16 08:14 | 40.68428 | 124.23502 | 35140 ft | 485 kts | 182° |
| 2026-04-16 08:15 | 40.61689 | 124.24271 | 35140 ft | 485 kts | 183° |
| 2026-04-16 08:15 | 40.54989 | 124.25031 | 35139 ft | 485 kts | 183° |
| 2026-04-16 08:16 | 40.48229 | 124.25795 | 35138 ft | 486 kts | 183° |
| 2026-04-16 08:16 | 40.44855 | 124.26180 | 34882 ft | 476 kts | 183° |
| 2026-04-16 08:16 | 40.41563 | 124.26553 | 33910 ft | 476 kts | 182° |
| 2026-04-16 08:17 | 40.38251 | 124.27044 | 32780 ft | 486 kts | 177° |
| 2026-04-16 08:17 | 40.34945 | 124.28183 | 31830 ft | 496 kts | 168° |
| 2026-04-16 08:17 | 40.31775 | 124.29997 | 30988 ft | 502 kts | 159° |
| 2026-04-16 08:17 | 40.28829 | 124.32461 | 30417 ft | 504 kts | 149° |
| 2026-04-16 08:18 | 40.26243 | 124.35471 | 30125 ft | 501 kts | 140° |
| 2026-04-16 08:19 | 40.14496 | 124.62341 | 26605 ft | 471 kts | 125° |
| 2026-04-16 08:20 | 40.12875 | 124.65859 | 26097 ft | 466 kts | 127° |
| 2026-04-16 08:20 | 40.11182 | 124.69445 | 25487 ft | 462 kts | 127° |
| 2026-04-16 08:20 | 40.09489 | 124.72965 | 24943 ft | 457 kts | 127° |
| 2026-04-16 08:20 | 40.07770 | 124.76489 | 24411 ft | 452 kts | 127° |
| 2026-04-16 08:21 | 40.06088 | 124.79905 | 23897 ft | 447 kts | 128° |
| 2026-04-16 08:21 | 40.04414 | 124.83273 | 23339 ft | 443 kts | 128° |
| 2026-04-16 08:21 | 40.02741 | 124.86620 | 22805 ft | 440 kts | 127° |
| 2026-04-16 08:21 | 40.01058 | 124.89971 | 22332 ft | 434 kts | 128° |
| 2026-04-16 08:22 | 39.99423 | 124.93214 | 21889 ft | 428 kts | 128° |
| 2026-04-16 08:22 | 39.97782 | 124.96460 | 21435 ft | 422 kts | 128° |
| 2026-04-16 08:22 | 39.96187 | 124.99607 | 20939 ft | 418 kts | 128° |
| 2026-04-16 08:22 | 39.94575 | 125.02779 | 20449 ft | 413 kts | 128° |
| 2026-04-16 08:23 | 39.93002 | 125.05873 | 20011 ft | 407 kts | 128° |
| 2026-04-16 08:23 | 39.91456 | 125.08907 | 19520 ft | 402 kts | 128° |
| 2026-04-16 08:23 | 39.89908 | 125.11940 | 19047 ft | 397 kts | 128° |
| 2026-04-16 08:23 | 39.88369 | 125.14951 | 18590 ft | 391 kts | 128° |
| 2026-04-16 08:24 | 39.86870 | 125.17881 | 18160 ft | 385 kts | 128° |
| 2026-04-16 08:24 | 39.85393 | 125.20765 | 17671 ft | 382 kts | 128° |
| 2026-04-16 08:24 | 39.83924 | 125.23631 | 17119 ft | 380 kts | 128° |
| 2026-04-16 08:24 | 39.82460 | 125.26482 | 16567 ft | 378 kts | 128° |
| 2026-04-16 08:25 | 39.81017 | 125.29290 | 16062 ft | 374 kts | 128° |
| 2026-04-16 08:25 | 39.79566 | 125.32113 | 15582 ft | 370 kts | 128° |
| 2026-04-16 08:25 | 39.78146 | 125.34875 | 15206 ft | 364 kts | 128° |
| 2026-04-16 08:25 | 39.76763 | 125.37563 | 15119 ft | 349 kts | 128° |
| 2026-04-16 08:26 | 39.75440 | 125.40134 | 15084 ft | 334 kts | 128° |
| 2026-04-16 08:26 | 39.74060 | 125.42458 | 15021 ft | 314 kts | 142° |
| 2026-04-16 08:26 | 39.72289 | 125.43969 | 14845 ft | 297 kts | 159° |
| 2026-04-16 08:26 | 39.70357 | 125.44856 | 14480 ft | 292 kts | 168° |
| 2026-04-16 08:27 | 39.68379 | 125.45437 | 14131 ft | 290 kts | 172° |
| 2026-04-16 08:27 | 39.66383 | 125.45899 | 13808 ft | 287 kts | 173° |
| 2026-04-16 08:27 | 39.64403 | 125.46323 | 13437 ft | 286 kts | 173° |
| 2026-04-16 08:27 | 39.62433 | 125.46737 | 13097 ft | 285 kts | 173° |
| 2026-04-16 08:28 | 39.60530 | 125.47137 | 13001 ft | 274 kts | 173° |
| 2026-04-16 08:28 | 39.58669 | 125.47527 | 12766 ft | 270 kts | 173° |
| 2026-04-16 08:28 | 39.56803 | 125.47918 | 12436 ft | 270 kts | 173° |
| 2026-04-16 08:28 | 39.54931 | 125.48310 | 12118 ft | 269 kts | 173° |
| 2026-04-16 08:29 | 39.53117 | 125.48691 | 12057 ft | 257 kts | 173° |
| 2026-04-16 08:29 | 39.51401 | 125.49052 | 12018 ft | 246 kts | 173° |
| 2026-04-16 08:29 | 39.49726 | 125.49401 | 11809 ft | 242 kts | 173° |
| 2026-04-16 08:29 | 39.48038 | 125.49753 | 11507 ft | 241 kts | 173° |
| 2026-04-16 08:30 | 39.46399 | 125.50095 | 11195 ft | 241 kts | 173° |
| 2026-04-16 08:30 | 39.44724 | 125.50445 | 10838 ft | 240 kts | 173° |
| 2026-04-16 08:30 | 39.43087 | 125.50787 | 10538 ft | 237 kts | 173° |
| 2026-04-16 08:30 | 39.41449 | 125.51130 | 10202 ft | 237 kts | 173° |
| 2026-04-16 08:31 | 39.39830 | 125.51467 | 9895 ft | 236 kts | 172° |
| 2026-04-16 08:31 | 39.38218 | 125.51803 | 9581 ft | 235 kts | 172° |
| 2026-04-16 08:31 | 39.36576 | 125.52145 | 9290 ft | 234 kts | 172° |
| 2026-04-16 08:31 | 39.34960 | 125.52482 | 8991 ft | 232 kts | 172° |
| 2026-04-16 08:32 | 39.33420 | 125.52804 | 8996 ft | 219 kts | 172° |
| 2026-04-16 08:32 | 39.31931 | 125.53114 | 8907 ft | 212 kts | 172° |
| 2026-04-16 08:32 | 39.30486 | 125.53414 | 8707 ft | 210 kts | 172° |
| 2026-04-16 08:32 | 39.29031 | 125.53716 | 8450 ft | 210 kts | 172° |
| 2026-04-16 08:33 | 39.27575 | 125.54019 | 8255 ft | 208 kts | 171° |
| 2026-04-16 08:33 | 39.26157 | 125.54313 | 8006 ft | 208 kts | 171° |
| 2026-04-16 08:33 | 39.24726 | 125.54610 | 7789 ft | 208 kts | 171° |
| 2026-04-16 08:33 | 39.23282 | 125.54910 | 7555 ft | 208 kts | 171° |
| 2026-04-16 08:34 | 39.21855 | 125.55306 | 7337 ft | 206 kts | 164° |
| 2026-04-16 08:34 | 39.20524 | 125.55829 | 7343 ft | 194 kts | 163° |
| 2026-04-16 08:34 | 39.19267 | 125.56330 | 7342 ft | 182 kts | 163° |
| 2026-04-16 08:34 | 39.18036 | 125.56816 | 6980 ft | 186 kts | 163° |
| 2026-04-16 08:35 | 39.16803 | 125.57302 | 6689 ft | 184 kts | 163° |
| 2026-04-16 08:35 | 39.15580 | 125.57783 | 6366 ft | 185 kts | 163° |
| 2026-04-16 08:35 | 39.14342 | 125.58273 | 6083 ft | 184 kts | 162° |
| 2026-04-16 08:35 | 39.13117 | 125.58756 | 5819 ft | 182 kts | 162° |
| 2026-04-16 08:36 | 39.11920 | 125.59228 | 5533 ft | 181 kts | 162° |
| 2026-04-16 08:36 | 39.10704 | 125.59706 | 5243 ft | 181 kts | 162° |
| 2026-04-16 08:36 | 39.09495 | 125.60182 | 4965 ft | 180 kts | 162° |
| 2026-04-16 08:36 | 39.08296 | 125.60654 | 4670 ft | 180 kts | 162° |
| 2026-04-16 08:37 | 39.07175 | 125.61295 | 4328 ft | 179 kts | 140° |
| 2026-04-16 08:37 | 39.06495 | 125.62651 | 3923 ft | 184 kts | 105° |
| 2026-04-16 08:37 | 39.06545 | 125.64287 | 3625 ft | 185 kts | 80° |
| 2026-04-16 08:37 | 39.06854 | 125.65679 | 3468 ft | 177 kts | 78° |
| 2026-04-16 08:38 | 39.07211 | 125.67169 | 3202 ft | 175 kts | 78° |
| 2026-04-16 08:38 | 39.07565 | 125.68644 | 2784 ft | 172 kts | 78° |
| 2026-04-16 08:38 | 39.07967 | 125.70106 | 2382 ft | 172 kts | 62° |
| 2026-04-16 08:38 | 39.08926 | 125.71121 | 2149 ft | 183 kts | 24° |
| 2026-04-16 08:39 | 39.10173 | 125.71325 | 1899 ft | 185 kts | 346° |
| 2026-04-16 08:39 | 39.11277 | 125.70593 | 1669 ft | 170 kts | 328° |
| 2026-04-16 08:39 | 39.12332 | 125.70068 | 1481 ft | 153 kts | 344° |
| 2026-04-16 08:39 | 39.13374 | 125.69733 | 1206 ft | 157 kts | 343° |
| 2026-04-16 08:40 | 39.14399 | 125.69410 | 1029 ft | 150 kts | 346° |
| 2026-04-16 08:40 | 39.15393 | 125.69080 | 903 ft | 146 kts | 343° |
| 2026-04-16 08:40 | 39.16233 | 125.68763 | 778 ft | 146 kts | 342° |
| 2026-04-16 08:40 | 39.17183 | 125.68372 | 532 ft | 143 kts | 341° |
| 2026-04-16 08:41 | 39.18123 | 125.67992 | 303 ft | 141 kts | 341° |
| 2026-04-16 08:41 | 39.19050 | 125.67622 | 128 ft | 137 kts | 341° |
| 2026-04-16 08:41 | 39.19921 | 125.67278 | 100 ft | 116 kts | 342° |
| 2026-04-16 08:41 | 39.20544 | 125.67029 | 105 ft | 72 kts | 343° |
| 2026-04-16 08:42 | 39.20998 | 125.66852 | 112 ft | 62 kts | 342° |
| 2026-04-16 08:42 | 39.21370 | 125.66784 | 109 ft | 40 kts | 12° |
| 2026-04-16 08:42 | 39.21493 | 125.66872 | 106 ft | 18 kts | 79° |
| 2026-04-16 08:42 | 39.21396 | 125.66957 | 106 ft | 19 kts | 163° |
| 2026-04-16 08:43 | 39.21259 | 125.67011 | 106 ft | 21 kts | 163° |
| 2026-04-16 08:43 | 39.21105 | 125.67070 | 105 ft | 23 kts | 163° |
| 2026-04-16 08:43 | 39.20938 | 125.67137 | 104 ft | 25 kts | 163° |
| 2026-04-16 08:43 | 39.20761 | 125.67207 | 103 ft | 27 kts | 163° |
| 2026-04-16 08:44 | 39.20572 | 125.67278 | 103 ft | 28 kts | 164° |
| 2026-04-16 08:44 | 39.20378 | 125.67360 | 103 ft | 30 kts | 165° |
| 2026-04-16 08:44 | 39.20198 | 125.67428 | 102 ft | 23 kts | 163° |
| 2026-04-16 08:44 | 39.20078 | 125.67484 | 101 ft | 6 kts | 112° |
| 2026-04-16 08:45 | 39.20083 | 125.67539 | 101 ft | 5 kts | 74° |
| 2026-04-16 08:45 | 39.20084 | 125.67544 | 101 ft | 0 kts | 72° |